Time,TemperatureF,DewpointF,PressureIn,WindDirection,WindDirectionDegrees,WindSpeedMPH,WindSpeedGustMPH,Humidity,HourlyPrecipIn,Conditions,Clouds,dailyrainin,SolarRadiationWatts/m^2,SoftwareType,DateUTC
2013-03-31 00:05:00,56.4,55.0,30.16,WSW,237,0.0,0.0,93,0.00,,,0.00,0,weatherlink.com 1.10,2013-03-31 04:05:00,
2013-03-31 00:20:00,56.1,54.0,30.15,WSW,237,1.0,1.0,93,0.00,,,0.00,0,weatherlink.com 1.10,2013-03-31 04:20:00,
2013-03-31 00:35:00,57.8,56.0,30.15,East,83,0.0,3.0,94,0.00,,,0.00,0,weatherlink.com 1.10,2013-03-31 04:35:00,
2013-03-31 00:50:00,56.9,55.0,30.15,East,83,0.0,1.0,94,0.00,,,0.00,0,weatherlink.com 1.10,2013-03-31 04:50:00,
2013-03-31 01:05:00,56.0,54.0,30.14,East,83,0.0,1.0,94,0.00,,,0.00,0,weatherlink.com 1.10,2013-03-31 05:05:00,
2013-03-31 01:20:00,55.8,54.0,30.14,East,83,0.0,0.0,95,0.00,,,0.00,0,weatherlink.com 1.10,2013-03-31 05:20:00,
2013-03-31 01:35:00,55.4,54.0,30.15,East,83,0.0,1.0,95,0.00,,,0.00,0,weatherlink.com 1.10,2013-03-31 05:35:00,
2013-03-31 01:50:00,56.3,55.0,30.14,East,83,0.0,2.0,95,0.00,,,0.00,0,weatherlink.com 1.10,2013-03-31 05:50:00,
2013-03-31 02:05:00,57.4,56.0,30.14,ESE,123,0.0,3.0,95,0.00,,,0.00,0,weatherlink.com 1.10,2013-03-31 06:05:00,
2013-03-31 02:20:00,58.4,57.0,30.13,SE,126,1.0,3.0,94,0.00,,,0.00,0,weatherlink.com 1.10,2013-03-31 06:20:00,
2013-03-31 02:35:00,58.6,57.0,30.13,South,183,0.0,4.0,94,0.00,,,0.00,0,weatherlink.com 1.10,2013-03-31 06:35:00,
2013-03-31 02:50:00,59.0,57.0,30.13,SSE,164,0.0,2.0,93,0.00,,,0.00,0,weatherlink.com 1.10,2013-03-31 06:50:00,
2013-03-31 03:06:00,58.8,57.0,30.13,SSE,163,0.0,1.0,92,0.00,,,0.00,0,weatherlink.com 1.10,2013-03-31 07:06:00,
2013-03-31 03:21:00,58.4,56.0,30.12,SSE,163,0.0,1.0,93,0.00,,,0.00,0,weatherlink.com 1.10,2013-03-31 07:21:00,
2013-03-31 03:36:00,59.5,57.0,30.11,SE,140,2.0,2.0,92,0.00,,,0.00,0,weatherlink.com 1.10,2013-03-31 07:36:00,
2013-03-31 03:51:00,59.5,57.0,30.11,SE,136,0.0,2.0,91,0.00,,,0.00,0,weatherlink.com 1.10,2013-03-31 07:51:00,
2013-03-31 04:06:00,59.6,57.0,30.11,SE,136,1.0,3.0,90,0.00,,,0.00,0,weatherlink.com 1.10,2013-03-31 08:06:00,
2013-03-31 04:21:00,60.1,57.0,30.11,SE,124,1.0,4.0,89,0.00,,,0.00,0,weatherlink.com 1.10,2013-03-31 08:21:00,
2013-03-31 04:36:00,59.9,56.0,30.10,SE,132,3.0,3.0,88,0.00,,,0.00,0,weatherlink.com 1.10,2013-03-31 08:36:00,
2013-03-31 04:51:00,59.9,56.0,30.10,SE,132,2.0,2.0,88,0.00,,,0.00,0,weatherlink.com 1.10,2013-03-31 08:51:00,
2013-03-31 05:51:00,56.8,54.0,30.11,ESE,123,0.0,0.0,91,0.00,,,0.00,0,weatherlink.com 1.10,2013-03-31 09:51:00,
2013-03-31 06:21:00,55.6,54.0,30.11,ESE,123,0.0,1.0,93,0.00,,,0.00,0,weatherlink.com 1.10,2013-03-31 10:21:00,
2013-03-31 07:06:00,54.1,53.0,30.13,ESE,123,0.0,1.0,95,0.00,,,0.00,0,weatherlink.com 1.10,2013-03-31 11:06:00,
2013-03-31 07:21:00,53.7,52.0,30.14,ESE,123,0.0,0.0,95,0.00,,,0.00,0,weatherlink.com 1.10,2013-03-31 11:21:00,
2013-03-31 07:36:00,53.7,52.0,30.14,ESE,123,0.0,0.0,95,0.00,,,0.00,16,weatherlink.com 1.10,2013-03-31 11:36:00,
2013-03-31 08:06:00,54.9,54.0,30.14,ESE,123,0.0,1.0,95,0.00,,,0.00,84,weatherlink.com 1.10,2013-03-31 12:06:00,
2013-03-31 08:21:00,58.4,57.0,30.14,ESE,123,0.0,2.0,95,0.00,,,0.00,127,weatherlink.com 1.10,2013-03-31 12:21:00,
2013-03-31 08:36:00,61.2,58.0,30.14,ESE,123,0.0,1.0,89,0.00,,,0.00,172,weatherlink.com 1.10,2013-03-31 12:36:00,
2013-03-31 09:06:00,64.7,59.0,30.15,ESE,111,0.0,4.0,81,0.00,,,0.00,272,weatherlink.com 1.10,2013-03-31 13:06:00,
2013-03-31 09:36:00,68.7,59.0,30.14,ESE,119,5.0,7.0,72,0.00,,,0.00,374,weatherlink.com 1.10,2013-03-31 13:36:00,
2013-03-31 09:52:00,71.0,59.0,30.14,SSE,148,2.0,8.0,67,0.00,,,0.00,441,weatherlink.com 1.10,2013-03-31 13:52:00,
2013-03-31 10:07:00,72.5,59.0,30.14,SE,130,5.0,11.0,63,0.00,,,0.00,499,weatherlink.com 1.10,2013-03-31 14:07:00,
2013-03-31 10:22:00,73.4,60.0,30.14,SSW,207,1.0,11.0,63,0.00,,,0.00,552,weatherlink.com 1.10,2013-03-31 14:22:00,
2013-03-31 10:37:00,75.2,60.0,30.15,SE,128,4.0,9.0,59,0.00,,,0.00,617,weatherlink.com 1.10,2013-03-31 14:37:00,
2013-03-31 10:52:00,73.7,59.0,30.14,South,178,7.0,11.0,61,0.00,,,0.00,647,weatherlink.com 1.10,2013-03-31 14:52:00,
2013-03-31 11:07:00,76.9,60.0,30.15,SE,142,4.0,9.0,57,0.00,,,0.00,703,weatherlink.com 1.10,2013-03-31 15:07:00,
2013-03-31 11:22:00,78.0,60.0,30.14,South,190,3.0,8.0,54,0.00,,,0.00,745,weatherlink.com 1.10,2013-03-31 15:22:00,
2013-03-31 11:37:00,77.9,61.0,30.14,SW,221,2.0,11.0,56,0.00,,,0.00,759,weatherlink.com 1.10,2013-03-31 15:37:00,
2013-03-31 11:52:00,79.0,58.0,30.14,South,174,3.0,10.0,49,0.00,,,0.00,587,weatherlink.com 1.10,2013-03-31 15:52:00,
2013-03-31 12:07:00,79.6,60.0,30.14,ESE,118,5.0,10.0,51,0.00,,,0.00,893,weatherlink.com 1.10,2013-03-31 16:07:00,
2013-03-31 12:22:00,77.3,59.0,30.14,WSW,237,5.0,8.0,53,0.00,,,0.00,670,weatherlink.com 1.10,2013-03-31 16:22:00,
2013-03-31 12:37:00,79.3,61.0,30.13,SW,216,0.0,8.0,53,0.00,,,0.00,816,weatherlink.com 1.10,2013-03-31 16:37:00,
2013-03-31 12:52:00,81.6,59.0,30.13,SSW,201,6.0,7.0,47,0.00,,,0.00,914,weatherlink.com 1.10,2013-03-31 16:52:00,
2013-03-31 13:07:00,81.2,60.0,30.12,SW,217,4.0,10.0,48,0.00,,,0.00,976,weatherlink.com 1.10,2013-03-31 17:07:00,
2013-03-31 13:22:00,82.3,61.0,30.12,South,175,2.0,8.0,49,0.00,,,0.00,1051,weatherlink.com 1.10,2013-03-31 17:22:00,
2013-03-31 13:37:00,78.5,59.0,30.11,SE,130,0.0,8.0,52,0.00,,,0.00,406,weatherlink.com 1.10,2013-03-31 17:37:00,
2013-03-31 13:52:00,77.5,59.0,30.11,SSW,197,4.0,11.0,54,0.00,,,0.00,485,weatherlink.com 1.10,2013-03-31 17:52:00,
2013-03-31 14:07:00,78.2,60.0,30.10,South,191,3.0,10.0,53,0.00,,,0.00,635,weatherlink.com 1.10,2013-03-31 18:07:00,
2013-03-31 14:22:00,78.4,59.0,30.09,SSW,201,3.0,9.0,52,0.00,,,0.00,439,weatherlink.com 1.10,2013-03-31 18:22:00,
2013-03-31 14:37:00,79.2,61.0,30.08,SSE,165,3.0,10.0,53,0.00,,,0.00,654,weatherlink.com 1.10,2013-03-31 18:37:00,
2013-03-31 14:52:00,78.4,59.0,30.07,South,170,2.0,10.0,52,0.00,,,0.00,422,weatherlink.com 1.10,2013-03-31 18:52:00,
2013-03-31 15:07:00,76.8,59.0,30.06,SSW,207,2.0,8.0,55,0.00,,,0.00,438,weatherlink.com 1.10,2013-03-31 19:07:00,
2013-03-31 15:22:00,76.2,59.0,30.06,SSW,212,4.0,8.0,56,0.00,,,0.00,413,weatherlink.com 1.10,2013-03-31 19:22:00,
2013-03-31 15:37:00,79.2,60.0,30.05,SW,216,3.0,10.0,52,0.00,,,0.00,701,weatherlink.com 1.10,2013-03-31 19:37:00,
2013-03-31 15:52:00,77.4,59.0,30.05,South,172,5.0,10.0,54,0.00,,,0.00,403,weatherlink.com 1.10,2013-03-31 19:52:00,
2013-03-31 16:07:00,76.0,60.0,30.05,SSW,203,7.0,9.0,57,0.00,,,0.00,394,weatherlink.com 1.10,2013-03-31 20:07:00,
2013-03-31 16:22:00,75.0,60.0,30.04,SW,227,4.0,15.0,59,0.00,,,0.00,272,weatherlink.com 1.10,2013-03-31 20:22:00,
2013-03-31 16:37:00,75.5,61.0,30.04,South,178,5.0,11.0,60,0.00,,,0.00,418,weatherlink.com 1.10,2013-03-31 20:37:00,
2013-03-31 16:53:00,76.4,61.0,30.03,SW,216,3.0,13.0,59,0.00,,,0.00,339,weatherlink.com 1.10,2013-03-31 20:53:00,
2013-03-31 17:08:00,76.2,61.0,30.02,SSE,159,5.0,16.0,60,0.00,,,0.00,617,weatherlink.com 1.10,2013-03-31 21:08:00,
2013-03-31 17:23:00,74.4,61.0,30.02,South,181,4.0,11.0,63,0.00,,,0.00,251,weatherlink.com 1.10,2013-03-31 21:23:00,
2013-03-31 17:38:00,77.0,62.0,30.02,SSW,201,5.0,10.0,61,0.00,,,0.00,385,weatherlink.com 1.10,2013-03-31 21:38:00,
2013-03-31 17:53:00,73.5,61.0,30.02,South,187,2.0,10.0,66,0.00,,,0.00,239,weatherlink.com 1.10,2013-03-31 21:53:00,
2013-03-31 18:08:00,76.7,62.0,30.03,WSW,237,3.0,11.0,61,0.00,,,0.00,373,weatherlink.com 1.10,2013-03-31 22:08:00,
2013-03-31 18:23:00,75.5,61.0,30.02,SSE,168,3.0,11.0,62,0.00,,,0.00,202,weatherlink.com 1.10,2013-03-31 22:23:00,
2013-03-31 18:38:00,74.3,61.0,30.02,SSW,193,4.0,11.0,64,0.00,,,0.00,232,weatherlink.com 1.10,2013-03-31 22:38:00,
2013-03-31 18:53:00,73.8,62.0,30.02,SW,216,5.0,12.0,66,0.00,,,0.00,156,weatherlink.com 1.10,2013-03-31 22:53:00,
2013-03-31 19:08:00,72.3,61.0,30.02,SSE,167,3.0,7.0,68,0.00,,,0.00,72,weatherlink.com 1.10,2013-03-31 23:08:00,
2013-03-31 19:23:00,70.3,61.0,30.02,South,186,3.0,11.0,72,0.00,,,0.00,19,weatherlink.com 1.10,2013-03-31 23:23:00,
2013-03-31 19:38:00,69.4,61.0,30.02,SSW,207,3.0,10.0,74,0.00,,,0.00,7,weatherlink.com 1.10,2013-03-31 23:38:00,
2013-03-31 19:53:00,68.8,61.0,30.01,SW,217,1.0,7.0,75,0.00,,,0.00,0,weatherlink.com 1.10,2013-03-31 23:53:00,
2013-03-31 20:08:00,68.5,61.0,30.01,SSW,194,2.0,5.0,76,0.00,,,0.00,0,weatherlink.com 1.10,2013-04-01 00:08:00,
2013-03-31 20:23:00,68.4,61.0,30.00,SW,215,4.0,9.0,77,0.00,,,0.00,0,weatherlink.com 1.10,2013-04-01 00:23:00,
2013-03-31 20:38:00,68.0,61.0,30.00,SE,134,2.0,5.0,77,0.00,,,0.00,0,weatherlink.com 1.10,2013-04-01 00:38:00,
2013-03-31 20:53:00,68.3,60.0,30.00,SSW,208,2.0,8.0,76,0.00,,,0.00,0,weatherlink.com 1.10,2013-04-01 00:53:00,
2013-03-31 21:08:00,68.5,61.0,30.00,SSW,206,7.0,12.0,76,0.00,,,0.00,0,weatherlink.com 1.10,2013-04-01 01:08:00,
2013-03-31 21:23:00,68.2,61.0,30.00,SSW,213,1.0,7.0,77,0.00,,,0.00,0,weatherlink.com 1.10,2013-04-01 01:23:00,
2013-03-31 21:38:00,67.9,62.0,30.01,WSW,252,4.0,11.0,80,0.00,,,0.00,0,weatherlink.com 1.10,2013-04-01 01:38:00,
2013-03-31 21:53:00,67.7,62.0,30.01,SSW,205,3.0,10.0,81,0.00,,,0.00,0,weatherlink.com 1.10,2013-04-01 01:53:00,
2013-03-31 22:08:00,67.7,62.0,30.02,SSW,199,5.0,8.0,81,0.00,,,0.00,0,weatherlink.com 1.10,2013-04-01 02:08:00,
2013-03-31 22:23:00,67.4,62.0,30.03,SSE,157,3.0,6.0,83,0.00,,,0.00,0,weatherlink.com 1.10,2013-04-01 02:23:00,
2013-03-31 22:38:00,66.9,62.0,30.02,SSE,165,2.0,5.0,85,0.00,,,0.00,0,weatherlink.com 1.10,2013-04-01 02:38:00,
2013-03-31 22:53:00,66.6,63.0,30.03,SSW,207,0.0,5.0,87,0.00,,,0.00,0,weatherlink.com 1.10,2013-04-01 02:53:00,
2013-03-31 23:08:00,66.5,63.0,30.02,SSE,168,0.0,3.0,87,0.00,,,0.00,0,weatherlink.com 1.10,2013-04-01 03:08:00,
2013-03-31 23:23:00,66.6,63.0,30.02,SSE,159,0.0,5.0,87,0.00,,,0.00,0,weatherlink.com 1.10,2013-04-01 03:23:00,
2013-03-31 23:38:00,66.6,63.0,30.02,SSW,209,0.0,4.0,87,0.00,,,0.00,0,weatherlink.com 1.10,2013-04-01 03:38:00,
2013-03-31 23:53:00,66.8,63.0,30.02,SSW,205,2.0,7.0,86,0.00,,,0.00,0,weatherlink.com 1.10,2013-04-01 03:53:00,